Zaragoza, España

11:07 PM CET en Octubre 31, 2014 (GMT +0100)
Valdefierro | Change Station
CLOSE
Current Station
Estación meteorológica personal
Location: Zaragoza, Zaragoza
Altura: 810 ft
Estaciones meteorológicas cercanas

Alt 810 ft 41.64 °N, 0.94 °W | Updated 4 seconds ago

Clear
Despejado
61.0 ° F
Sensación térmica 61.0 ° F
N
2.0
Viento Variable Viento desde ESE
Gusts 2.7 mph

Hoy
Alta -- | Baja -- ° F
--% Posibilidad de precipitaciones
Ayer
Alta -- | Baja -- ° F
Precip. -- pul
7:34 AM 6:00 PM
Cuarto creciente, 59% visible
Presión 30.21 pul
Visibilidad 5.6 Millas
Nubes
Punto de rocío 50 ° F
Humedad 67%
Precipitaciones 0.00 pul
Espesor de la nieve No disponible.
UV No disponible.
Polen No disponible.
Calidad del aire No disponible.
Flu Activity No disponible.
METAR LEZG 312200Z 17002KT 9000 NSC 12/10 Q1023

More Conditions Fewer Conditions

Presión 30.21 pul
Visibilidad 5.6 Millas
Nubes
Punto de rocío 50 ° F
Humedad 67%
Precipitaciones 0.00 pul
Espesor de la nieve No disponible.
UV No disponible.
Polen No disponible.
Calidad del aire No disponible.
Flu Activity No disponible.
METAR LEZG 312200Z 17002KT 9000 NSC 12/10 Q1023

More Conditions Fewer Conditions

10-Day Weather Forecast

Almanac

Astronomía

Oct. 31, 2014 Salida Puesta
Hora real
Crepúsculo civil
Crepúsculo náutico
Crepúsculo astronómico
Luna
Horas de luz
Horas de luz
Tomorrow will be .
, % of the Moon is Illuminated

Extremos de hoy

Máximos del país Bajas del país

Community

WunderPhotos

Upload Photos

1,766,751 ¡fotos cargadas!

WunderBlogs® & News

Nearby

Calidad del aire

  Calidad del aire Índice AQ Contaminante
Not available.

Grosos de nieve

Estación Profundido Altura

Actividad de terremotos

Ciudad Distance Mag. Tiempo y dato
Magnitud mínima muestra es 2,5.

Temperaturas de aguas costeras

Lugar Temperatura

Estaciones meteorológicas cercanas